Etusivu
METAR-TAF:

METAR-TAF

Lentoasemat :

Langlade County Airport

Antigo, Wisconsin, Yhdysvallat

Leveyspiiri: 45-09-15N, Pituuspiiri: 89-06-39W, korkeus merenpinnasta: 464 m

Tämänhetkinen sää

Tämä raportti tehtiin 30 minuuttia sitten, kello 15.35 UTC
Tuuli 5 kn luoteesta
Lämpötila -1°C
Kosteus 59%
Ilmanpaine 1025 hPa
Näkyvyys: 16.1 km
Hajonneita pilviä 2800 ft:n korkeudessa
Hajonneita pilviä 4900 ft:n korkeudessa

METAR: KAIG 301535Z AUTO 31005KT 10SM BKN028 BKN049 M01/M08 A3026 RMK AO2 T10071076

Aika: 11:05 (16:05 UTC)


TAF: puuttuu

Säähavainnot ja -ennusteet yli 4000 lentoasemalta (METAR- ja TAF-raportit).

Käytössä olevat sääasemat on merkitty karttaan keltaisilla ja punaisilla pisteillä.

Aseta hiiri pisteen päälle nähdäksesi sääaseman nimen.

Klikkaa sitten nähdäksesi säähavainnot ja -ennusteet.

Kartan vaihtaminen: klikkaa mustalla rastilla varustettuja vihreitä pisteitä, niin voit zoomata sisään; viivalla varustettua vihreää pistettä, niin voit zoomata ulos tai vihreitä nuolia, niin pääset viereisille kartoille.


METAR-TAF: